Time;durP1;ratioP1;P1;durP2;ratioP2;P2;SDS_P1;SDS_P2;PMS_P1;PMS_P2;Temp;Humidity;BMP_temperature;BMP_pressure;BME280_temperature;BME280_humidity;BME280_pressure;Samples;Min_cycle;Max_cycle;Signal;HPM_P1;HPM_P2
2022/12/31 00:00:02;;;;;;;;;;;;;;;8.69;78.33;100406.38;5086443;28;19954;-68
2022/12/31 00:02:27;;;;;;;;;;;;;;;8.72;78.59;100400.13;5080831;28;19931;-65
2022/12/31 00:04:53;;;;;;;;;;;;;;;8.74;78.46;100404.34;5080110;28;19920;-61
2022/12/31 00:07:18;;;;;;;;;;;;;;;8.75;78.43;100408.66;5070330;28;19971;-67
2022/12/31 00:09:44;;;;;;;;;;;;;;;8.76;78.44;100415.59;5065442;28;20027;-61
2022/12/31 00:12:09;;;;;;;;;;;;;;;8.75;78.75;100408.66;5066451;28;19929;-66
2022/12/31 00:14:35;;;;;;;;;;;;;;;8.78;78.79;100408.50;5072301;28;20001;-60
2022/12/31 00:17:00;;;;;;;;;;;;;;;8.80;78.59;100411.88;5081994;28;19932;-62
2022/12/31 00:19:29;;;;;;;;;;;;;;;8.82;78.77;100428.38;5078992;28;19978;-64
2022/12/31 00:21:54;;;;;;;;;;;;;;;8.86;78.42;100426.44;5084629;28;19924;-60
2022/12/31 00:24:19;;;;;;;;;;;;;;;8.90;78.40;100445.47;5067952;28;19943;-60
2022/12/31 00:26:45;;;;;;;;;;;;;;;8.90;78.45;100441.06;5081562;28;19920;-63
2022/12/31 00:29:10;;;;;;;;;;;;;;;8.92;78.37;100433.97;5087290;28;19971;-58
2022/12/31 00:31:36;;;;;;;;;;;;;;;8.92;78.58;100423.47;5081387;28;20010;-67
2022/12/31 00:34:02;;;;;;;;;;;;;;;8.95;78.44;100427.69;5071558;28;20019;-63
2022/12/31 00:36:29;;;;;;;;;;;;;;;8.98;78.50;100448.53;5082191;28;20050;-58
2022/12/31 00:38:55;;;;;;;;;;;;;;;9.01;78.35;100443.06;5069521;28;19920;-62
2022/12/31 00:41:21;;;;;;;;;;;;;;;9.02;78.49;100428.19;5068954;28;19953;-68
2022/12/31 00:43:47;;;;;;;;;;;;;;;9.04;78.42;100427.16;5073057;28;20427;-60
2022/12/31 00:46:12;;;;;;;;;;;;;;;9.07;78.29;100428.78;5066090;28;19931;-61
2022/12/31 00:48:38;;;;;;;;;;;;;;;9.10;78.08;100429.47;5071348;28;19920;-59
2022/12/31 00:51:04;;;;;;;;;;;;;;;9.09;78.31;100417.25;5088654;28;20276;-59
2022/12/31 00:53:30;;;;;;;;;;;;;;;9.09;78.49;100425.13;5085919;28;19924;-62
2022/12/31 00:56:03;;;;;;;;;;;;;;;9.12;78.27;100426.72;5084848;28;19912;-64
2022/12/31 00:58:28;;;;;;;;;;;;;;;9.17;78.30;100436.97;5084967;28;19912;-58
2022/12/31 01:00:54;;;;;;;;;;;;;;;9.20;78.37;100431.53;5085452;28;21171;-61
2022/12/31 01:03:19;;;;;;;;;;;;;;;9.23;78.24;100444.50;5085480;28;20004;-61
2022/12/31 01:05:45;;;;;;;;;;;;;;;9.26;78.06;100425.97;5088294;28;19959;-59
2022/12/31 01:08:10;;;;;;;;;;;;;;;9.28;78.17;100432.81;5083957;28;20033;-59
2022/12/31 01:13:19;;;;;;;;;;;;;;;9.35;77.94;100449.06;5088136;28;19924;-66
2022/12/31 01:15:44;;;;;;;;;;;;;;;9.38;77.96;100445.38;5088564;28;19920;-58
2022/12/31 01:18:10;;;;;;;;;;;;;;;9.42;77.65;100457.41;5085429;28;19942;-61
2022/12/31 01:20:37;;;;;;;;;;;;;;;9.42;77.80;100460.91;5089495;28;20410;-61
2022/12/31 01:23:02;;;;;;;;;;;;;;;9.43;77.82;100459.97;5081038;28;19966;-65
2022/12/31 01:25:27;;;;;;;;;;;;;;;9.45;77.79;100467.75;5085651;28;19920;-62
2022/12/31 01:27:53;;;;;;;;;;;;;;;9.45;77.61;100471.22;5079239;28;20419;-61
2022/12/31 01:30:19;;;;;;;;;;;;;;;9.44;77.57;100480.06;5080512;28;19920;-64
2022/12/31 01:32:44;;;;;;;;;;;;;;;9.42;77.91;100484.53;5078991;28;19923;-58
2022/12/31 01:35:10;;;;;;;;;;;;;;;9.39;77.65;100473.34;5088344;28;19939;-62
2022/12/31 01:37:35;;;;;;;;;;;;;;;9.37;77.82;100470.00;5087880;28;19977;-62
2022/12/31 01:40:00;;;;;;;;;;;;;;;9.32;77.80;100475.47;5085247;28;20060;-61
2022/12/31 01:42:26;;;;;;;;;;;;;;;9.30;77.74;100472.13;5087976;28;20188;-60
2022/12/31 01:44:53;;;;;;;;;;;;;;;9.28;77.94;100464.31;5079695;28;20447;-67
2022/12/31 01:47:24;;;;;;;;;;;;;;;9.25;78.02;100466.28;5086099;28;20375;-59
2022/12/31 01:49:56;;;;;;;;;;;;;;;9.26;77.99;100479.28;5082713;28;20009;-59
2022/12/31 01:52:26;;;;;;;;;;;;;;;9.24;78.12;100481.16;5089317;28;19923;-59
2022/12/31 01:54:54;;;;;;;;;;;;;;;9.23;78.10;100503.09;5084265;28;20280;-61
2022/12/31 01:57:21;;;;;;;;;;;;;;;9.22;78.35;100482.19;5083769;28;20014;-62
2022/12/31 01:59:46;;;;;;;;;;;;;;;9.22;78.13;100475.19;5077624;28;19966;-61
2022/12/31 02:02:13;;;;;;;;;;;;;;;9.21;78.22;100489.22;5084009;28;19924;-62
2022/12/31 02:04:38;;;;;;;;;;;;;;;9.19;78.29;100495.47;5087738;28;19921;-60
2022/12/31 02:07:05;;;;;;;;;;;;;;;9.18;78.45;100492.03;5086882;28;19923;-61
2022/12/31 02:09:32;;;;;;;;;;;;;;;9.19;78.41;100484.97;5087233;28;20367;-65
2022/12/31 02:11:57;;;;;;;;;;;;;;;9.18;78.44;100483.28;5085468;28;20299;-64
2022/12/31 02:14:34;;;;;;;;;;;;;;;9.15;78.83;100466.78;5081288;28;19925;-62
2022/12/31 02:17:18;;;;;;;;;;;;;;;9.14;79.00;100472.97;5084888;28;19916;-63
2022/12/31 02:19:55;;;;;;;;;;;;;;;9.17;78.75;100489.47;5083848;28;19970;-63
2022/12/31 02:22:21;;;;;;;;;;;;;;;9.17;78.92;100502.59;5085494;28;20302;-63
2022/12/31 02:25:05;;;;;;;;;;;;;;;9.20;78.85;100502.44;5082304;28;19924;-62
2022/12/31 02:27:36;;;;;;;;;;;;;;;9.24;78.86;100510.03;5085878;28;19920;-61
2022/12/31 02:30:17;;;;;;;;;;;;;;;9.29;78.71;100510.63;5078442;28;19951;-63
2022/12/31 02:32:48;;;;;;;;;;;;;;;9.37;78.65;100519.88;5085193;28;19923;-60
2022/12/31 02:35:13;;;;;;;;;;;;;;;9.43;78.53;100516.88;5083807;28;19924;-61
2022/12/31 02:37:40;;;;;;;;;;;;;;;9.46;78.57;100509.69;5085166;28;19920;-62
2022/12/31 02:40:08;;;;;;;;;;;;;;;9.52;78.32;100510.28;5083267;28;20311;-62
2022/12/31 02:42:33;;;;;;;;;;;;;;;9.55;78.34;100502.22;5080237;28;19920;-62
2022/12/31 02:44:59;;;;;;;;;;;;;;;9.58;78.28;100488.91;5085682;28;19920;-62
2022/12/31 02:47:49;;;;;;;;;;;;;;;9.62;78.30;100493.03;5089306;28;19924;-64
2022/12/31 02:50:29;;;;;;;;;;;;;;;9.66;78.12;100499.81;5066614;28;19924;-61
2022/12/31 02:53:04;;;;;;;;;;;;;;;9.69;77.75;100502.28;5082988;28;20275;-63
2022/12/31 02:55:40;;;;;;;;;;;;;;;9.72;77.84;100499.47;5083747;28;19920;-62
2022/12/31 02:58:05;;;;;;;;;;;;;;;9.72;77.85;100506.50;5077233;28;20050;-65
2022/12/31 03:03:16;;;;;;;;;;;;;;;9.76;77.78;100492.25;5070885;28;19926;-62
2022/12/31 03:05:43;;;;;;;;;;;;;;;9.78;77.85;100493.00;5075660;28;19916;-62
2022/12/31 03:08:08;;;;;;;;;;;;;;;9.81;77.79;100484.09;5080252;28;19924;-60
2022/12/31 03:10:33;;;;;;;;;;;;;;;9.81;77.88;100484.09;5079806;28;19986;-62
2022/12/31 03:12:59;;;;;;;;;;;;;;;9.83;77.89;100501.44;5087121;28;20019;-64
2022/12/31 03:15:24;;;;;;;;;;;;;;;9.85;77.81;100496.13;5084220;28;20399;-63
2022/12/31 03:17:53;;;;;;;;;;;;;;;9.86;77.89;100508.31;5083707;28;19916;-60
2022/12/31 03:23:04;;;;;;;;;;;;;;;9.89;77.73;100498.47;5079674;28;19927;-62
2022/12/31 03:25:33;;;;;;;;;;;;;;;9.91;77.85;100506.25;5082913;28;20011;-64
2022/12/31 03:28:00;;;;;;;;;;;;;;;9.92;77.71;100494.81;5084702;28;20389;-61
2022/12/31 03:30:25;;;;;;;;;;;;;;;9.96;77.79;100495.50;5082704;28;19924;-61
2022/12/31 03:32:51;;;;;;;;;;;;;;;9.96;77.54;100488.44;5061511;28;19912;-62
2022/12/31 03:35:20;;;;;;;;;;;;;;;9.95;77.78;100486.75;5081688;28;19924;-63
2022/12/31 03:37:46;;;;;;;;;;;;;;;9.95;77.83;100486.75;5079746;28;19920;-62
2022/12/31 03:40:12;;;;;;;;;;;;;;;9.97;77.66;100484.88;5065053;28;19916;-61
2022/12/31 03:42:37;;;;;;;;;;;;;;;9.96;77.86;100488.44;5086627;28;19959;-64
2022/12/31 03:45:03;;;;;;;;;;;;;;;9.97;77.86;100484.88;5080809;28;20410;-64
2022/12/31 03:47:29;;;;;;;;;;;;;;;9.98;77.91;100486.56;5086074;28;19962;-64
2022/12/31 03:49:54;;;;;;;;;;;;;;;10.00;78.07;100484.72;5080369;28;19928;-63
2022/12/31 03:52:20;;;;;;;;;;;;;;;10.00;78.13;100478.59;5081376;28;20621;-62
2022/12/31 03:54:45;;;;;;;;;;;;;;;10.00;78.06;100478.59;5084732;28;19920;-61
2022/12/31 03:57:11;;;;;;;;;;;;;;;10.00;78.38;100484.72;5085625;28;19956;-64
2022/12/31 03:59:36;;;;;;;;;;;;;;;10.03;78.34;100489.78;5085467;28;19916;-64
2022/12/31 04:02:02;;;;;;;;;;;;;;;10.01;78.55;100489.03;5085643;28;19920;-61
2022/12/31 04:04:27;;;;;;;;;;;;;;;10.04;78.44;100486.22;5085001;28;20397;-63
2022/12/31 04:06:52;;;;;;;;;;;;;;;10.06;78.29;100483.50;5077657;28;19920;-61
2022/12/31 04:09:17;;;;;;;;;;;;;;;10.06;78.37;100488.75;5082558;28;19916;-63
2022/12/31 04:11:43;;;;;;;;;;;;;;;10.07;78.49;100485.19;5081790;28;20014;-63
2022/12/31 04:14:08;;;;;;;;;;;;;;;10.07;78.60;100486.00;5083606;28;20002;-62
2022/12/31 04:16:34;;;;;;;;;;;;;;;10.07;78.67;100480.75;5082996;28;19924;-59
2022/12/31 04:18:59;;;;;;;;;;;;;;;10.11;78.63;100485.84;5062761;28;19920;-62
2022/12/31 04:21:24;;;;;;;;;;;;;;;10.12;78.79;100488.41;5079791;28;19944;-58
2022/12/31 04:23:50;;;;;;;;;;;;;;;10.15;78.59;100488.19;5085607;28;20430;-62
2022/12/31 04:26:15;;;;;;;;;;;;;;;10.18;78.56;100493.25;5088063;28;20326;-62
2022/12/31 04:28:41;;;;;;;;;;;;;;;10.18;78.58;100495.06;5077546;28;20387;-64
2022/12/31 04:31:06;;;;;;;;;;;;;;;10.19;78.83;100488.88;5085202;28;20493;-60
2022/12/31 04:33:31;;;;;;;;;;;;;;;10.20;78.49;100501.09;5087344;28;19920;-65
2022/12/31 04:36:00;;;;;;;;;;;;;;;10.23;78.63;100498.25;5090918;28;19943;-59
2022/12/31 04:38:25;;;;;;;;;;;;;;;10.25;78.44;100499.00;5084202;28;19967;-65
2022/12/31 04:43:35;;;;;;;;;;;;;;;10.24;78.46;100492.03;5072663;28;19946;-69
2022/12/31 04:46:00;;;;;;;;;;;;;;;10.25;78.48;100488.47;5088151;28;20327;-60
2022/12/31 04:48:25;;;;;;;;;;;;;;;10.27;78.40;100505.00;5085408;28;20015;-64
2022/12/31 04:50:51;;;;;;;;;;;;;;;10.29;78.59;100502.28;5083300;28;20399;-60
2022/12/31 04:53:16;;;;;;;;;;;;;;;10.29;78.46;100495.25;5087417;28;19999;-68
2022/12/31 04:55:41;;;;;;;;;;;;;;;10.30;78.35;100499.56;5082998;28;19944;-59
2022/12/31 04:58:07;;;;;;;;;;;;;;;10.32;78.33;100487.19;5082280;28;19977;-61
2022/12/31 05:00:32;;;;;;;;;;;;;;;10.35;78.18;100488.78;5085648;28;20002;-61
2022/12/31 05:02:57;;;;;;;;;;;;;;;10.34;78.32;100487.94;5083086;28;20562;-63
2022/12/31 05:05:22;;;;;;;;;;;;;;;10.36;78.35;100493.94;5084704;28;19916;-60
2022/12/31 05:07:48;;;;;;;;;;;;;;;10.37;78.61;100484.28;5086206;28;19916;-64
2022/12/31 05:10:13;;;;;;;;;;;;;;;10.37;78.44;100490.34;5086643;28;19932;-64
2022/12/31 05:12:39;;;;;;;;;;;;;;;10.39;78.75;100494.72;5084091;28;19916;-62
2022/12/31 05:15:04;;;;;;;;;;;;;;;10.37;78.83;100482.47;5081996;28;20280;-62
2022/12/31 05:17:30;;;;;;;;;;;;;;;10.36;79.09;100486.03;5082770;28;19920;-61
2022/12/31 05:19:55;;;;;;;;;;;;;;;10.38;79.26;100491.25;5078964;28;19924;-62
2022/12/31 05:22:29;;;;;;;;;;;;;;;10.39;79.16;100485.06;5082790;28;19921;-61
2022/12/31 05:24:55;;;;;;;;;;;;;;;10.40;79.51;100484.13;5070265;28;20023;-59
2022/12/31 05:27:21;;;;;;;;;;;;;;;10.38;79.89;100478.09;5086534;28;19973;-62
2022/12/31 05:29:46;;;;;;;;;;;;;;;10.39;80.15;100474.53;5080951;28;19921;-64
2022/12/31 05:32:11;;;;;;;;;;;;;;;10.41;79.95;100484.94;5087192;28;19924;-64
2022/12/31 05:34:37;;;;;;;;;;;;;;;10.40;80.19;100481.50;5086117;28;19923;-62
2022/12/31 05:37:02;;;;;;;;;;;;;;;10.41;80.28;100480.56;5088273;28;19954;-62
2022/12/31 05:39:27;;;;;;;;;;;;;;;10.40;80.52;100472.75;5084033;28;20009;-65
2022/12/31 05:41:53;;;;;;;;;;;;;;;10.41;80.66;100458.66;5088076;28;19918;-65
2022/12/31 05:44:18;;;;;;;;;;;;;;;10.40;80.55;100460.44;5086598;28;19990;-65
2022/12/31 05:46:43;;;;;;;;;;;;;;;10.42;80.58;100462.97;5087016;28;19920;-64
2022/12/31 05:49:08;;;;;;;;;;;;;;;10.43;80.80;100473.41;5079041;28;20003;-61
2022/12/31 05:51:34;;;;;;;;;;;;;;;10.45;80.73;100470.69;5091193;28;20290;-62
2022/12/31 05:53:59;;;;;;;;;;;;;;;10.44;80.99;100469.81;5086300;28;20282;-65
2022/12/31 05:56:24;;;;;;;;;;;;;;;10.44;80.94;100474.25;5082612;28;19924;-62
2022/12/31 05:58:50;;;;;;;;;;;;;;;10.45;81.00;100479.41;5082599;28;19935;-62
2022/12/31 06:01:15;;;;;;;;;;;;;;;10.44;81.19;100476.88;5084075;28;20351;-64
2022/12/31 06:03:40;;;;;;;;;;;;;;;10.43;81.18;100478.69;5080193;28;19928;-63
2022/12/31 06:06:06;;;;;;;;;;;;;;;10.44;81.19;100488.22;5086037;28;19963;-62
2022/12/31 06:08:32;;;;;;;;;;;;;;;10.44;81.22;100480.34;5081940;28;20010;-61
2022/12/31 06:10:57;;;;;;;;;;;;;;;10.43;81.01;100485.72;5085162;28;20397;-64
2022/12/31 06:13:23;;;;;;;;;;;;;;;10.43;81.12;100491.84;5085726;28;19935;-63
2022/12/31 06:15:48;;;;;;;;;;;;;;;10.45;81.00;100489.09;5087950;28;19966;-63
2022/12/31 06:18:13;;;;;;;;;;;;;;;10.45;81.34;100486.47;5080683;28;19932;-63
2022/12/31 06:20:38;;;;;;;;;;;;;;;10.44;81.46;100475.06;5084149;28;19921;-61
2022/12/31 06:23:04;;;;;;;;;;;;;;;10.46;81.39;100478.47;5079063;28;19981;-61
2022/12/31 06:25:30;;;;;;;;;;;;;;;10.48;81.37;100473.13;5084675;28;19963;-63
2022/12/31 06:27:55;;;;;;;;;;;;;;;10.46;81.39;100467.09;5078189;28;19928;-62
2022/12/31 06:30:20;;;;;;;;;;;;;;;10.45;81.58;100457.53;5083800;28;19920;-60
2022/12/31 06:32:46;;;;;;;;;;;;;;;10.46;81.85;100469.75;5084564;28;19920;-63
2022/12/31 06:35:11;;;;;;;;;;;;;;;10.46;81.61;100464.47;5081586;28;19948;-63
2022/12/31 06:37:37;;;;;;;;;;;;;;;10.47;81.59;100466.19;5088307;28;19928;-62
2022/12/31 06:40:05;;;;;;;;;;;;;;;10.47;81.66;100466.19;5078128;28;20192;-63
2022/12/31 06:42:30;;;;;;;;;;;;;;;10.43;82.18;100456.78;5084894;28;19920;-63
2022/12/31 06:44:56;;;;;;;;;;;;;;;10.43;82.09;100456.78;5089899;28;19928;-62
2022/12/31 06:47:22;;;;;;;;;;;;;;;10.45;82.51;100454.91;5082002;28;19978;-62
2022/12/31 06:49:47;;;;;;;;;;;;;;;10.44;82.58;100456.66;5087434;28;19928;-62
2022/12/31 06:52:13;;;;;;;;;;;;;;;10.46;82.52;100457.41;5084160;28;19916;-63
2022/12/31 06:54:38;;;;;;;;;;;;;;;10.45;82.41;100450.47;5090085;28;19924;-62
2022/12/31 06:57:03;;;;;;;;;;;;;;;10.49;82.66;100443.25;5079960;28;20445;-60
2022/12/31 06:59:29;;;;;;;;;;;;;;;10.52;82.53;100448.31;5084211;28;19920;-60
2022/12/31 07:02:10;;;;;;;;;;;;;;;10.53;82.61;100460.50;5082250;28;20019;-63
2022/12/31 07:04:48;;;;;;;;;;;;;;;10.55;83.01;100457.81;5066491;28;20411;-61
2022/12/31 07:07:13;;;;;;;;;;;;;;;10.51;83.16;100468.50;5088331;28;20014;-63
2022/12/31 07:09:47;;;;;;;;;;;;;;;10.54;83.23;100464.84;5083836;28;19947;-63
2022/12/31 07:12:23;;;;;;;;;;;;;;;10.55;83.49;100469.16;5084309;28;20223;-60
2022/12/31 07:14:53;;;;;;;;;;;;;;;10.54;83.68;100467.47;5088113;28;19920;-61
2022/12/31 07:17:19;;;;;;;;;;;;;;;10.56;83.57;100465.59;5080492;28;20014;-63
2022/12/31 07:19:47;;;;;;;;;;;;;;;10.58;83.79;100466.34;5082222;28;20018;-64
2022/12/31 07:22:15;;;;;;;;;;;;;;;10.58;83.83;100453.19;5080962;28;19931;-62
2022/12/31 07:24:42;;;;;;;;;;;;;;;10.59;83.97;100454.88;5080347;28;19920;-62
2022/12/31 07:27:24;;;;;;;;;;;;;;;10.59;83.87;100449.63;5082989;28;19945;-62
2022/12/31 07:30:05;;;;;;;;;;;;;;;10.61;83.74;100442.47;5063220;28;20368;-61
2022/12/31 07:32:36;;;;;;;;;;;;;;;10.61;83.98;100446.88;5076418;28;19923;-62
2022/12/31 07:35:15;;;;;;;;;;;;;;;10.61;84.11;100447.75;5080005;28;19924;-63
2022/12/31 07:37:53;;;;;;;;;;;;;;;10.62;84.25;100441.53;5084507;28;19922;-63
2022/12/31 07:40:18;;;;;;;;;;;;;;;10.65;84.13;100449.25;5080258;28;19931;-64
2022/12/31 07:43:03;;;;;;;;;;;;;;;10.68;84.37;100443.78;5085747;28;19920;-63
2022/12/31 07:45:37;;;;;;;;;;;;;;;10.70;84.52;100440.19;5080805;28;19947;-63
2022/12/31 07:48:03;;;;;;;;;;;;;;;10.71;84.70;100444.53;5083876;28;19935;-62
2022/12/31 07:50:28;;;;;;;;;;;;;;;10.72;84.94;100439.19;5080537;28;20372;-60
2022/12/31 07:52:54;;;;;;;;;;;;;;;10.77;85.06;100436.25;5083441;28;19927;-64
2022/12/31 07:55:19;;;;;;;;;;;;;;;10.82;84.99;100434.16;5083724;28;19966;-64
2022/12/31 07:57:51;;;;;;;;;;;;;;;10.86;85.08;100443.56;5078827;28;19947;-64
2022/12/31 08:00:16;;;;;;;;;;;;;;;10.88;85.23;100444.31;5081760;28;19931;-63
2022/12/31 08:02:44;;;;;;;;;;;;;;;10.90;85.18;100442.41;5079141;28;19920;-62
2022/12/31 08:05:15;;;;;;;;;;;;;;;10.95;85.01;100445.63;5085470;28;20294;-62
2022/12/31 08:07:46;;;;;;;;;;;;;;;11.00;85.07;100449.72;5090807;28;19916;-63
2022/12/31 08:10:17;;;;;;;;;;;;;;;11.02;85.28;100450.47;5088815;28;20049;-64
2022/12/31 08:12:44;;;;;;;;;;;;;;;11.04;84.98;100444.16;5083704;28;19913;-62
2022/12/31 08:15:13;;;;;;;;;;;;;;;11.06;85.15;100444.06;5087473;28;19939;-62
2022/12/31 08:17:39;;;;;;;;;;;;;;;11.07;85.18;100445.75;5081441;28;19924;-60
2022/12/31 08:20:04;;;;;;;;;;;;;;;11.09;84.98;100462.31;5084833;28;19924;-62
2022/12/31 08:22:48;;;;;;;;;;;;;;;11.09;85.08;100455.25;5087718;28;20419;-64
2022/12/31 08:25:32;;;;;;;;;;;;;;;11.13;85.13;100469.91;5076899;28;19916;-61
2022/12/31 08:28:07;;;;;;;;;;;;;;;11.16;85.06;100474.13;5073845;28;19916;-62
2022/12/31 08:30:38;;;;;;;;;;;;;;;11.19;84.78;100476.56;5071473;28;19912;-61
2022/12/31 08:33:16;;;;;;;;;;;;;;;11.21;84.97;100455.38;5081702;28;19978;-60
2022/12/31 08:36:02;;;;;;;;;;;;;;;11.23;84.97;100448.22;5068030;28;19924;-63
2022/12/31 08:38:36;;;;;;;;;;;;;;;11.22;84.77;100450.03;5077656;28;20177;-65
2022/12/31 08:41:02;;;;;;;;;;;;;;;11.23;84.70;100457.00;5081769;28;20565;-65
2022/12/31 08:43:36;;;;;;;;;;;;;;;11.23;84.59;100458.75;5081340;28;20014;-66
2022/12/31 08:46:04;;;;;;;;;;;;;;;11.22;84.70;100442.13;5084915;28;19923;-64
2022/12/31 08:48:35;;;;;;;;;;;;;;;11.26;84.70;100445.41;5082647;28;19921;-63
2022/12/31 08:51:00;;;;;;;;;;;;;;;11.26;84.55;100454.16;5088439;28;20474;-65
2022/12/31 08:53:26;;;;;;;;;;;;;;;11.26;84.57;100464.69;5078846;28;20023;-63
2022/12/31 08:55:54;;;;;;;;;;;;;;;11.23;84.61;100457.00;5080858;28;19924;-62
2022/12/31 08:58:19;;;;;;;;;;;;;;;11.25;84.46;100457.75;5077184;28;19926;-63
2022/12/31 09:00:47;;;;;;;;;;;;;;;11.24;84.53;100448.16;5083805;28;19916;-63
2022/12/31 09:03:28;;;;;;;;;;;;;;;11.28;84.58;100451.41;5080766;28;20014;-64
2022/12/31 09:06:05;;;;;;;;;;;;;;;11.32;84.68;100452.06;5070821;28;21693;-61
2022/12/31 09:08:49;;;;;;;;;;;;;;;11.32;84.54;100446.78;5081338;28;20042;-65
2022/12/31 09:11:26;;;;;;;;;;;;;;;11.34;84.56;100452.78;5081212;28;20402;-64
2022/12/31 09:13:51;;;;;;;;;;;;;;;11.36;84.54;100458.81;5075910;28;19926;-65
2022/12/31 09:16:26;;;;;;;;;;;;;;;11.38;84.45;100464.84;5078047;28;19921;-65
2022/12/31 09:18:51;;;;;;;;;;;;;;;11.39;84.33;100475.25;5079186;28;19919;-65
2022/12/31 09:21:17;;;;;;;;;;;;;;;11.40;84.28;100471.69;5080859;28;19920;-64
2022/12/31 09:23:42;;;;;;;;;;;;;;;11.41;84.28;100470.75;5072999;28;19928;-64
2022/12/31 09:26:13;;;;;;;;;;;;;;;11.42;84.26;100466.31;5076374;28;19928;-65
2022/12/31 09:28:57;;;;;;;;;;;;;;;11.41;84.21;100473.38;5083565;28;19920;-64
2022/12/31 09:31:31;;;;;;;;;;;;;;;11.43;84.36;100481.16;5078200;28;19927;-63
2022/12/31 09:33:59;;;;;;;;;;;;;;;11.43;84.32;100489.06;5079812;28;19985;-64
2022/12/31 09:36:29;;;;;;;;;;;;;;;11.42;84.38;100493.50;5081553;28;19924;-64
2022/12/31 09:39:13;;;;;;;;;;;;;;;11.42;84.46;100484.75;5079936;28;20043;-63
2022/12/31 09:42:00;;;;;;;;;;;;;;;11.44;84.55;100483.72;5080661;28;19974;-63
2022/12/31 09:44:28;;;;;;;;;;;;;;;11.47;84.23;100479.19;5081353;28;19920;-62
2022/12/31 09:46:56;;;;;;;;;;;;;;;11.48;84.32;100468.53;5075663;28;19919;-63
2022/12/31 09:49:54;;;;;;;;;;;;;;;11.50;84.42;100477.19;5074389;28;19978;-63
2022/12/31 09:52:25;;;;;;;;;;;;;;;11.53;84.23;100484.91;5083763;28;20019;-63
2022/12/31 09:55:11;;;;;;;;;;;;;;;11.55;84.29;100472.47;5082282;28;19923;-63
2022/12/31 09:57:44;;;;;;;;;;;;;;;11.58;84.19;100472.25;5073341;28;19924;-62
2022/12/31 10:00:09;;;;;;;;;;;;;;;11.62;84.33;100459.72;5078258;28;19943;-61
2022/12/31 10:02:35;;;;;;;;;;;;;;;11.65;84.24;100463.94;5073914;28;20273;-60
2022/12/31 10:05:11;;;;;;;;;;;;;;;11.66;84.40;100465.63;5073205;28;20579;-60
2022/12/31 10:07:36;;;;;;;;;;;;;;;11.67;84.26;100468.16;5063961;28;20326;-60
2022/12/31 10:10:22;;;;;;;;;;;;;;;11.70;83.98;100464.50;5082218;28;19927;-63
2022/12/31 10:12:50;;;;;;;;;;;;;;;11.71;83.82;100460.91;5083546;28;19927;-62
2022/12/31 10:15:15;;;;;;;;;;;;;;;11.70;84.09;100465.31;5081409;28;19916;-63
2022/12/31 10:17:41;;;;;;;;;;;;;;;11.71;83.99;100474.09;5074010;28;19928;-63
2022/12/31 10:20:24;;;;;;;;;;;;;;;11.72;84.00;100470.50;5081378;28;19920;-63
2022/12/31 10:22:52;;;;;;;;;;;;;;;11.75;83.93;100472.91;5079447;28;19921;-63
2022/12/31 10:25:35;;;;;;;;;;;;;;;11.75;83.96;100462.38;5072161;28;19928;-62
2022/12/31 10:28:19;;;;;;;;;;;;;;;11.78;84.03;100480.63;5080248;28;19916;-60
2022/12/31 10:30:51;;;;;;;;;;;;;;;11.80;83.83;100473.47;5080138;28;19935;-61
2022/12/31 10:33:30;;;;;;;;;;;;;;;11.82;84.21;100461.03;5079788;28;19961;-65
2022/12/31 10:36:05;;;;;;;;;;;;;;;11.87;83.98;100463.34;5078892;28;19927;-64
2022/12/31 10:38:30;;;;;;;;;;;;;;;11.89;84.12;100459.66;5060248;28;19924;-66
2022/12/31 10:41:14;;;;;;;;;;;;;;;11.92;84.17;100465.66;5067012;28;20017;-63
2022/12/31 10:44:03;;;;;;;;;;;;;;;11.95;84.27;100470.72;5065106;28;19924;-64
2022/12/31 10:46:28;;;;;;;;;;;;;;;11.98;84.37;100454.72;5033710;28;19928;-65
2022/12/31 10:48:53;;;;;;;;;;;;;;;12.02;84.28;100462.34;5066587;28;20335;-64
2022/12/31 10:51:37;;;;;;;;;;;;;;;12.05;84.63;100461.28;5070978;28;19924;-65
2022/12/31 10:54:11;;;;;;;;;;;;;;;12.11;84.60;100466.13;5062776;28;19925;-65
2022/12/31 10:56:37;;;;;;;;;;;;;;;12.17;84.76;100460.44;5062798;28;19966;-64
2022/12/31 10:59:08;;;;;;;;;;;;;;;12.22;85.09;100459.28;5062073;28;19952;-65
2022/12/31 11:01:49;;;;;;;;;;;;;;;12.28;85.00;100458.84;5060074;28;19924;-64
2022/12/31 11:04:23;;;;;;;;;;;;;;;12.33;85.20;100462.00;5066282;28;20508;-65
2022/12/31 11:06:48;;;;;;;;;;;;;;;12.37;85.00;100466.13;5058814;28;19924;-65
2022/12/31 11:09:14;;;;;;;;;;;;;;;12.42;85.38;100471.94;5074800;28;19986;-65
2022/12/31 11:11:59;;;;;;;;;;;;;;;12.47;85.13;100471.59;5064649;28;19927;-66
2022/12/31 11:14:38;;;;;;;;;;;;;;;12.51;85.31;100473.09;5034546;28;19924;-64
2022/12/31 11:17:06;;;;;;;;;;;;;;;12.54;85.25;100477.28;5062679;28;19939;-61
2022/12/31 11:19:41;;;;;;;;;;;;;;;12.58;85.03;100478.78;5061018;28;19924;-66
2022/12/31 11:22:06;;;;;;;;;;;;;;;12.62;85.38;100469.69;5068851;28;20389;-64
2022/12/31 11:24:55;;;;;;;;;;;;;;;12.67;85.42;100472.81;5074970;28;20394;-64
2022/12/31 11:27:39;;;;;;;;;;;;;;;12.76;85.42;100466.91;5058774;28;20357;-66
2022/12/31 11:30:05;;;;;;;;;;;;;;;12.84;85.33;100462.88;5064963;28;19943;-67
2022/12/31 11:32:31;;;;;;;;;;;;;;;12.89;85.17;100458.09;5043759;28;19923;-65
2022/12/31 11:34:56;;;;;;;;;;;;;;;12.95;85.33;100465.56;5063160;28;20890;-66
2022/12/31 11:37:40;;;;;;;;;;;;;;;13.00;85.10;100458.16;5068143;28;19928;-65
2022/12/31 11:40:14;;;;;;;;;;;;;;;13.03;84.78;100447.38;5073259;28;19916;-64
2022/12/31 11:42:49;;;;;;;;;;;;;;;13.07;84.72;100445.34;5063859;28;19924;-64
2022/12/31 11:45:14;;;;;;;;;;;;;;;13.06;85.07;100447.16;5069100;28;19924;-66
2022/12/31 11:47:50;;;;;;;;;;;;;;;13.11;85.38;100446.81;5068207;28;19923;-65
2022/12/31 11:50:28;;;;;;;;;;;;;;;13.17;85.40;100443.72;5069393;28;20478;-65
2022/12/31 11:52:53;;;;;;;;;;;;;;;13.26;85.27;100450.13;5076001;28;20407;-65
2022/12/31 11:55:31;;;;;;;;;;;;;;;13.30;85.02;100453.41;5066499;28;19939;-66
2022/12/31 11:57:58;;;;;;;;;;;;;;;13.36;85.10;100448.50;5068226;28;19977;-57
2022/12/31 12:00:24;;;;;;;;;;;;;;;13.39;85.03;100452.72;5068583;28;19923;-66
2022/12/31 12:02:56;;;;;;;;;;;;;;;13.40;85.10;100452.63;5067640;28;19920;-61
2022/12/31 12:05:22;;;;;;;;;;;;;;;13.43;85.06;100448.06;5079651;28;19920;-60
2022/12/31 12:07:48;;;;;;;;;;;;;;;13.42;85.16;100457.81;5083067;28;19955;-64
2022/12/31 12:10:25;;;;;;;;;;;;;;;13.43;84.92;100445.41;5087944;28;20018;-62
2022/12/31 12:12:52;;;;;;;;;;;;;;;13.41;85.02;100441.09;5072182;28;20405;-62
2022/12/31 12:15:20;;;;;;;;;;;;;;;13.43;85.03;100442.78;5078868;28;20387;-58
2022/12/31 12:17:48;;;;;;;;;;;;;;;13.45;85.18;100448.78;5070191;28;20019;-66
2022/12/31 12:20:15;;;;;;;;;;;;;;;13.45;85.05;100444.38;5088902;28;19957;-66
2022/12/31 12:22:51;;;;;;;;;;;;;;;13.48;85.11;100451.22;5081010;28;19978;-64
2022/12/31 12:25:21;;;;;;;;;;;;;;;13.49;84.93;100459.00;5091544;28;19967;-65
2022/12/31 12:27:47;;;;;;;;;;;;;;;13.47;85.12;100455.63;5078038;28;19916;-63
2022/12/31 12:30:20;;;;;;;;;;;;;;;13.46;85.17;100463.69;5080714;28;19938;-66
2022/12/31 12:32:59;;;;;;;;;;;;;;;13.45;85.23;100464.66;5075465;28;19923;-64
2022/12/31 12:35:26;;;;;;;;;;;;;;;13.42;85.16;100463.09;5080676;28;19967;-67
2022/12/31 12:38:03;;;;;;;;;;;;;;;13.44;85.24;100460.31;5084939;28;19920;-65
2022/12/31 12:40:29;;;;;;;;;;;;;;;13.44;85.31;100460.31;5073265;28;19981;-64
2022/12/31 12:42:54;;;;;;;;;;;;;;;13.46;85.11;100458.41;5075773;28;20329;-65
2022/12/31 12:45:27;;;;;;;;;;;;;;;13.46;85.14;100463.69;5079089;28;19927;-65
2022/12/31 12:47:58;;;;;;;;;;;;;;;13.46;85.24;100453.13;5075770;28;19967;-65
2022/12/31 12:50:25;;;;;;;;;;;;;;;13.48;85.06;100445.94;5078616;28;19925;-66
2022/12/31 12:52:50;;;;;;;;;;;;;;;13.48;85.36;100427.44;5076318;28;19920;-63
2022/12/31 12:55:19;;;;;;;;;;;;;;;13.48;85.17;100428.25;5077743;28;19924;-65
2022/12/31 12:57:49;;;;;;;;;;;;;;;13.51;85.15;100432.50;5075561;28;20035;-65
2022/12/31 13:00:17;;;;;;;;;;;;;;;13.50;85.00;100439.56;5058797;28;19920;-65